createdAt,value
2023-02-03T00:01:45.241Z,4.30
2023-02-03T00:04:13.382Z,5.07
2023-02-03T00:06:42.004Z,4.47
2023-02-03T00:09:09.382Z,4.25
2023-02-03T00:11:40.297Z,4.55
2023-02-03T00:14:08.087Z,4.30
2023-02-03T00:16:36.055Z,4.57
2023-02-03T00:19:03.977Z,4.45
2023-02-03T00:21:31.369Z,4.05
2023-02-03T00:23:58.701Z,3.97
2023-02-03T00:26:28.527Z,3.97
2023-02-03T00:28:55.869Z,3.90
2023-02-03T00:31:24.435Z,3.55
2023-02-03T00:33:56.395Z,3.60
2023-02-03T00:36:24.608Z,3.45
2023-02-03T00:38:51.930Z,5.10
2023-02-03T00:41:20.364Z,3.65
2023-02-03T00:43:48.644Z,3.70
2023-02-03T00:46:16.783Z,3.22
2023-02-03T00:48:44.183Z,4.32
2023-02-03T00:51:11.733Z,3.88
2023-02-03T00:53:39.125Z,4.30
2023-02-03T00:56:12.517Z,4.03
2023-02-03T00:58:43.224Z,3.67
2023-02-03T01:01:10.791Z,3.60
2023-02-03T01:03:38.489Z,3.53
2023-02-03T01:06:14.404Z,3.70
2023-02-03T01:08:41.903Z,3.80
2023-02-03T01:11:10.879Z,4.25
2023-02-03T01:13:38.186Z,4.30
2023-02-03T01:16:09.147Z,3.67
2023-02-03T01:18:36.736Z,4.35
2023-02-03T01:21:15.944Z,4.63
2023-02-03T01:23:43.870Z,4.03
2023-02-03T01:26:17.088Z,5.15
2023-02-03T01:28:44.397Z,4.07
2023-02-03T01:31:24.569Z,4.30
2023-02-03T01:33:54.268Z,4.47
2023-02-03T01:36:23.378Z,4.57
2023-02-03T01:38:51.016Z,4.22
2023-02-03T01:41:24.755Z,4.45
2023-02-03T01:43:56.367Z,4.30
2023-02-03T01:46:32.597Z,3.95
2023-02-03T01:49:22.291Z,4.20
2023-02-03T01:51:50.681Z,4.45
2023-02-03T01:54:24.803Z,4.13
2023-02-03T01:56:57.076Z,4.03
2023-02-03T01:59:25.134Z,3.92
2023-02-03T02:01:53.470Z,4.30
2023-02-03T02:04:22.313Z,4.88
2023-02-03T02:06:52.332Z,4.45
2023-02-03T02:09:19.744Z,3.97
2023-02-03T02:11:47.035Z,4.72
2023-02-03T02:14:14.373Z,4.45
2023-02-03T02:17:02.842Z,5.03
2023-02-03T02:20:08.130Z,4.97
2023-02-03T02:23:07.981Z,4.75
2023-02-03T02:25:41.722Z,4.72
2023-02-03T02:28:33.559Z,4.45
2023-02-03T02:31:28.955Z,4.80
2023-02-03T02:34:06.240Z,6.00
2023-02-03T02:36:50.218Z,5.03
2023-02-03T02:39:28.246Z,4.85
2023-02-03T02:42:17.633Z,4.93
2023-02-03T02:44:54.284Z,4.85
2023-02-03T02:47:22.884Z,4.10
2023-02-03T02:49:55.011Z,4.78
2023-02-03T02:52:23.323Z,5.03
2023-02-03T02:54:53.667Z,4.55
2023-02-03T02:57:22.593Z,4.22
2023-02-03T02:59:59.535Z,3.92
2023-02-03T03:02:36.763Z,4.30
2023-02-03T03:05:06.794Z,3.60
2023-02-03T03:07:38.609Z,4.00
2023-02-03T03:10:09.078Z,4.60
2023-02-03T03:12:39.449Z,3.88
2023-02-03T03:15:15.117Z,3.78
2023-02-03T03:17:52.689Z,3.88
2023-02-03T03:20:24.007Z,4.43
2023-02-03T03:23:08.536Z,4.25
2023-02-03T03:25:41.186Z,3.80
2023-02-03T03:28:15.397Z,4.10
2023-02-03T03:30:42.932Z,4.30
2023-02-03T03:33:10.648Z,3.83
2023-02-03T03:36:02.676Z,4.40
2023-02-03T03:38:37.856Z,3.80
2023-02-03T03:41:09.028Z,4.50
2023-02-03T03:43:39.878Z,4.00
2023-02-03T03:46:16.716Z,3.88
2023-02-03T03:49:00.252Z,3.97
2023-02-03T03:51:44.342Z,3.95
2023-02-03T03:54:15.408Z,4.07
2023-02-03T03:56:58.442Z,3.33
2023-02-03T03:59:28.004Z,4.35
2023-02-03T04:01:55.718Z,3.50
2023-02-03T04:04:24.415Z,3.60
2023-02-03T04:06:54.539Z,3.30
2023-02-03T04:09:22.021Z,4.10
2023-02-03T04:12:01.731Z,4.10
2023-02-03T04:14:34.903Z,4.03
2023-02-03T04:17:02.588Z,4.10
2023-02-03T04:19:29.944Z,3.25
2023-02-03T04:21:57.826Z,3.58
2023-02-03T04:24:25.460Z,4.03
2023-02-03T04:26:52.731Z,3.30
2023-02-03T04:29:20.078Z,3.60
2023-02-03T04:31:47.419Z,3.95
2023-02-03T04:34:14.789Z,3.78
2023-02-03T04:36:42.086Z,3.60
2023-02-03T04:39:09.457Z,4.50
2023-02-03T04:41:44.401Z,4.82
2023-02-03T04:44:12.629Z,3.92
2023-02-03T04:46:40.210Z,4.35
2023-02-03T04:49:11.761Z,3.78
2023-02-03T04:51:39.262Z,3.50
2023-02-03T04:54:06.716Z,3.92
2023-02-03T04:56:34.180Z,4.28
2023-02-03T04:59:01.767Z,3.97
2023-02-03T05:01:29.096Z,3.88
2023-02-03T05:03:56.421Z,4.22
2023-02-03T05:06:25.976Z,3.67
2023-02-03T05:08:53.647Z,4.25
2023-02-03T05:11:21.947Z,4.28
2023-02-03T05:13:49.324Z,4.45
2023-02-03T05:16:16.911Z,3.95
2023-02-03T05:18:44.290Z,4.57
2023-02-03T05:21:11.798Z,4.10
2023-02-03T05:23:39.101Z,4.43
2023-02-03T05:26:09.885Z,3.80
2023-02-03T05:28:38.066Z,4.82
2023-02-03T05:31:05.997Z,4.55
2023-02-03T05:33:33.730Z,4.65
2023-02-03T05:36:01.121Z,4.22
2023-02-03T05:38:28.613Z,4.43
2023-02-03T05:41:14.695Z,4.72
2023-02-03T05:43:42.075Z,4.38
2023-02-03T05:46:12.626Z,4.05
2023-02-03T05:48:40.072Z,4.90
2023-02-03T05:51:07.372Z,4.32
2023-02-03T05:53:34.841Z,4.75
2023-02-03T05:56:02.209Z,4.55
2023-02-03T05:58:29.548Z,4.10
2023-02-03T06:00:57.013Z,4.07
2023-02-03T06:03:25.101Z,4.28
2023-02-03T06:05:52.590Z,4.70
2023-02-03T06:08:20.001Z,4.20
2023-02-03T06:10:47.367Z,3.80
2023-02-03T06:13:16.603Z,4.35
2023-02-03T06:15:45.125Z,4.22
2023-02-03T06:18:12.492Z,3.80
2023-02-03T06:20:43.041Z,4.40
2023-02-03T06:23:10.487Z,3.95
2023-02-03T06:25:38.140Z,4.03
2023-02-03T06:28:08.086Z,3.63
2023-02-03T06:30:35.585Z,3.65
2023-02-03T06:33:03.076Z,3.88
2023-02-03T06:35:39.456Z,3.75
2023-02-03T06:38:07.123Z,3.97
2023-02-03T06:40:34.486Z,4.15
2023-02-03T06:43:02.055Z,4.07
2023-02-03T06:45:29.615Z,3.90
2023-02-03T06:47:57.144Z,3.70
2023-02-03T06:50:24.726Z,3.85
2023-02-03T06:52:52.640Z,3.50
2023-02-03T06:55:20.291Z,3.63
2023-02-03T06:57:48.852Z,3.65
2023-02-03T07:00:19.207Z,3.92
2023-02-03T07:02:56.859Z,3.67
2023-02-03T07:05:25.156Z,3.17
2023-02-03T07:07:52.953Z,3.63
2023-02-03T07:10:20.523Z,3.17
2023-02-03T07:12:48.186Z,3.15
2023-02-03T07:15:17.108Z,3.30
2023-02-03T07:17:44.528Z,3.53
2023-02-03T07:20:12.219Z,3.90
2023-02-03T07:22:42.818Z,3.38
2023-02-03T07:25:10.220Z,3.28
2023-02-03T07:27:37.647Z,3.13
2023-02-03T07:30:05.465Z,4.05
2023-02-03T07:32:33.878Z,3.25
2023-02-03T07:35:01.430Z,3.88
2023-02-03T07:37:28.796Z,4.28
2023-02-03T07:39:56.645Z,4.05
2023-02-03T07:42:24.203Z,3.50
2023-02-03T07:44:51.566Z,3.92
2023-02-03T07:47:18.908Z,3.63
2023-02-03T07:49:46.250Z,3.70
2023-02-03T07:52:13.582Z,4.00
2023-02-03T07:54:41.214Z,4.30
2023-02-03T07:57:08.557Z,3.78
2023-02-03T07:59:35.892Z,3.42
2023-02-03T08:02:03.669Z,4.22
2023-02-03T08:04:31.215Z,4.97
2023-02-03T08:06:58.644Z,4.55
2023-02-03T08:09:25.953Z,3.72
2023-02-03T08:11:53.312Z,4.85
2023-02-03T08:14:20.613Z,4.22
2023-02-03T08:16:47.959Z,3.83
2023-02-03T08:19:15.352Z,4.13
2023-02-03T08:21:42.718Z,3.90
2023-02-03T08:24:10.154Z,3.50
2023-02-03T08:26:37.834Z,4.10
2023-02-03T08:29:05.316Z,4.18
2023-02-03T08:31:32.933Z,4.15
2023-02-03T08:34:00.264Z,4.22
2023-02-03T08:36:27.721Z,4.20
2023-02-03T08:38:55.113Z,4.13
2023-02-03T08:41:22.514Z,3.92
2023-02-03T08:43:50.739Z,4.18
2023-02-03T08:46:18.130Z,4.68
2023-02-03T08:48:45.457Z,3.38
2023-02-03T08:51:19.927Z,4.40
2023-02-03T08:53:47.165Z,3.90
2023-02-03T08:56:14.662Z,4.15
2023-02-03T08:58:42.013Z,3.75
2023-02-03T09:01:14.741Z,3.88
2023-02-03T09:03:42.310Z,3.70
2023-02-03T09:06:13.046Z,3.83
2023-02-03T09:08:40.895Z,3.50
2023-02-03T09:11:12.891Z,3.53
2023-02-03T09:13:40.743Z,4.10
2023-02-03T09:16:08.507Z,3.22
2023-02-03T09:18:36.188Z,3.60
2023-02-03T09:21:13.906Z,2.92
2023-02-03T09:23:48.356Z,2.83
2023-02-03T09:26:17.065Z,3.70
2023-02-03T09:28:44.598Z,3.50
2023-02-03T09:31:21.065Z,2.97
2023-02-03T09:33:48.535Z,3.08
2023-02-03T09:36:15.894Z,3.20
2023-02-03T09:38:46.344Z,3.35
2023-02-03T09:41:19.499Z,3.65
2023-02-03T09:44:03.651Z,3.08
2023-02-03T09:46:34.512Z,3.53
2023-02-03T09:49:39.674Z,4.00
2023-02-03T09:52:17.878Z,3.53
2023-02-03T09:54:50.669Z,3.22
2023-02-03T09:59:54.540Z,3.33
2023-02-03T10:02:45.519Z,3.28
2023-02-03T10:05:36.561Z,2.95
2023-02-03T10:08:07.349Z,3.15
2023-02-03T10:10:41.827Z,3.80
2023-02-03T10:13:38.753Z,4.07
2023-02-03T10:16:27.513Z,3.70
2023-02-03T10:18:56.375Z,3.95
2023-02-03T10:21:36.889Z,3.40
2023-02-03T10:24:11.425Z,4.13
2023-02-03T10:26:40.027Z,3.65
2023-02-03T10:29:34.801Z,3.55
2023-02-03T10:32:02.612Z,4.18
2023-02-03T10:34:30.340Z,3.92
2023-02-03T10:37:31.545Z,3.47
2023-02-03T10:39:59.928Z,3.70
2023-02-03T10:42:50.345Z,3.72
2023-02-03T10:45:18.122Z,3.50
2023-02-03T10:47:52.158Z,3.10
2023-02-03T10:50:23.239Z,3.45
2023-02-03T10:52:50.632Z,3.38
2023-02-03T10:55:26.673Z,3.47
2023-02-03T10:57:55.369Z,3.53
2023-02-03T11:00:32.811Z,3.75
2023-02-03T11:03:24.772Z,3.20
2023-02-03T11:06:24.778Z,3.58
2023-02-03T11:08:52.541Z,3.58
2023-02-03T11:11:26.061Z,3.15
2023-02-03T11:13:55.315Z,3.10
2023-02-03T11:16:24.651Z,3.33
2023-02-03T11:19:00.544Z,3.03
2023-02-03T11:21:34.733Z,3.17
2023-02-03T11:24:20.377Z,3.20
2023-02-03T11:26:57.906Z,3.13
2023-02-03T11:29:36.998Z,3.65
2023-02-03T11:32:16.572Z,3.13
2023-02-03T11:34:58.108Z,3.30
2023-02-03T11:37:47.526Z,3.28
2023-02-03T11:40:23.456Z,2.97
2023-02-03T11:42:50.917Z,2.88
2023-02-03T11:45:48.758Z,3.20
2023-02-03T11:48:36.120Z,3.20
2023-02-03T11:51:09.711Z,3.00
2023-02-03T11:54:11.303Z,3.17
2023-02-03T11:57:24.402Z,3.25
2023-02-03T11:59:57.469Z,3.10
2023-02-03T12:02:58.440Z,2.90
2023-02-03T12:05:37.529Z,3.10
2023-02-03T12:08:14.759Z,3.13
2023-02-03T12:11:24.043Z,3.10
2023-02-03T12:13:54.365Z,3.03
2023-02-03T12:16:51.711Z,3.55
2023-02-03T12:19:18.966Z,3.03
2023-02-03T12:22:21.125Z,3.15
2023-02-03T12:25:10.213Z,3.72
2023-02-03T12:27:45.253Z,3.05
2023-02-03T12:30:29.202Z,3.10
2023-02-03T12:33:05.001Z,3.00
2023-02-03T12:36:05.763Z,2.88
2023-02-03T12:38:41.310Z,2.45
2023-02-03T12:41:21.878Z,2.78
2023-02-03T12:44:32.529Z,2.72
2023-02-03T12:47:34.691Z,2.75
2023-02-03T12:50:06.885Z,2.72
2023-02-03T12:53:06.039Z,3.00
2023-02-03T12:55:40.370Z,2.60
2023-02-03T12:58:34.468Z,3.08
2023-02-03T13:02:06.325Z,2.90
2023-02-03T13:04:55.991Z,3.00
2023-02-03T13:07:40.110Z,2.80
2023-02-03T13:13:00.893Z,3.40
2023-02-03T13:15:40.623Z,3.25
2023-02-03T13:18:20.468Z,2.72
2023-02-03T13:20:48.110Z,3.05
2023-02-03T13:23:16.431Z,2.97
2023-02-03T13:25:50.266Z,3.58
2023-02-03T13:28:48.481Z,4.10
2023-02-03T13:31:41.671Z,3.58
2023-02-03T13:34:29.909Z,3.15
2023-02-03T13:37:18.610Z,2.88
2023-02-03T13:40:04.447Z,3.05
2023-02-03T13:42:33.751Z,3.30
2023-02-03T13:45:11.747Z,3.28
2023-02-03T13:47:39.191Z,2.88
2023-02-03T13:50:29.602Z,3.35
2023-02-03T13:53:18.717Z,3.00
2023-02-03T13:55:55.982Z,2.75
2023-02-03T13:58:49.116Z,3.10
2023-02-03T14:01:30.971Z,2.88
2023-02-03T14:03:59.126Z,3.08
2023-02-03T14:06:54.682Z,3.13
2023-02-03T14:09:34.461Z,3.63
2023-02-03T14:12:34.605Z,3.30
2023-02-03T14:15:21.916Z,3.20
2023-02-03T14:17:52.773Z,3.30
2023-02-03T14:20:29.542Z,3.30
2023-02-03T14:23:07.167Z,3.22
2023-02-03T14:25:46.423Z,4.18
2023-02-03T14:28:41.062Z,3.20
2023-02-03T14:31:16.978Z,3.35
2023-02-03T14:33:59.743Z,3.42
2023-02-03T14:36:29.933Z,3.25
2023-02-03T14:38:59.896Z,3.10
2023-02-03T14:41:46.067Z,3.47
2023-02-03T14:44:45.265Z,3.17
2023-02-03T14:47:31.413Z,3.58
2023-02-03T14:50:23.938Z,3.58
2023-02-03T14:53:22.357Z,3.37
2023-02-03T14:56:13.165Z,3.30
2023-02-03T14:58:49.698Z,3.50
2023-02-03T15:01:36.068Z,4.13
2023-02-03T15:04:13.453Z,3.40
2023-02-03T15:06:47.344Z,3.78
2023-02-03T15:10:00.109Z,3.55
2023-02-03T15:12:31.025Z,4.55
2023-02-03T15:15:35.570Z,3.63
2023-02-03T15:18:31.062Z,3.80
2023-02-03T15:20:58.843Z,3.90
2023-02-03T15:23:31.486Z,4.15
2023-02-03T15:26:01.500Z,3.78
2023-02-03T15:28:30.582Z,3.70
2023-02-03T15:31:17.063Z,3.92
2023-02-03T15:33:45.334Z,3.70
2023-02-03T15:36:20.820Z,4.45
2023-02-03T15:38:55.807Z,4.18
2023-02-03T15:41:25.119Z,4.30
2023-02-03T15:44:01.927Z,4.07
2023-02-03T15:46:45.039Z,4.05
2023-02-03T15:52:00.651Z,4.32
2023-02-03T15:54:48.993Z,4.53
2023-02-03T15:57:34.768Z,4.68
2023-02-03T16:00:10.960Z,4.13
2023-02-03T16:02:48.758Z,4.55
2023-02-03T16:05:34.723Z,4.70
2023-02-03T16:08:33.886Z,4.65
2023-02-03T16:11:01.711Z,4.70
2023-02-03T16:13:30.981Z,4.70
2023-02-03T16:16:05.872Z,4.80
2023-02-03T16:18:36.878Z,4.47
2023-02-03T16:21:05.953Z,4.55
2023-02-03T16:23:33.784Z,5.28
2023-02-03T16:26:18.048Z,5.20
2023-02-03T16:29:15.386Z,4.88
2023-02-03T16:32:04.896Z,4.85
2023-02-03T16:34:51.221Z,4.47
2023-02-03T16:37:49.170Z,5.28
2023-02-03T16:40:40.691Z,4.70
2023-02-03T16:43:34.813Z,5.80
2023-02-03T16:46:21.170Z,5.70
2023-02-03T16:49:07.269Z,5.68
2023-02-03T16:51:41.651Z,5.80
2023-02-03T16:54:13.794Z,5.55
2023-02-03T16:56:41.384Z,8.98
2023-02-03T16:59:09.490Z,6.30
2023-02-03T17:01:37.078Z,6.10
2023-02-03T17:04:05.108Z,6.30
2023-02-03T17:06:34.168Z,6.00
2023-02-03T17:09:02.029Z,5.38
2023-02-03T17:11:29.681Z,6.22
2023-02-03T17:13:58.016Z,6.38
2023-02-03T17:16:28.169Z,6.13
2023-02-03T17:18:55.948Z,5.82
2023-02-03T17:21:31.150Z,5.32
2023-02-03T17:23:59.068Z,5.72
2023-02-03T17:26:28.918Z,5.93
2023-02-03T17:29:03.111Z,6.05
2023-02-03T17:31:31.510Z,5.97
2023-02-03T17:33:59.593Z,6.70
2023-02-03T17:36:27.473Z,6.30
2023-02-03T17:55:28.893Z,5.80
2023-02-03T17:57:56.912Z,6.07
2023-02-03T18:00:24.548Z,6.00
2023-02-03T18:02:52.648Z,5.53
2023-02-03T18:05:20.106Z,5.47
2023-02-03T18:07:50.209Z,5.60
2023-02-03T18:10:27.382Z,6.43
2023-02-03T18:12:55.070Z,6.60
2023-02-03T18:15:22.509Z,7.20
2023-02-03T18:17:51.077Z,6.22
2023-02-03T18:20:18.548Z,6.47
2023-02-03T18:22:45.929Z,6.18
2023-02-03T18:25:16.853Z,6.22
2023-02-03T18:27:44.833Z,6.28
2023-02-03T18:30:12.880Z,6.57
2023-02-03T18:32:40.421Z,4.85
2023-02-03T18:35:14.015Z,6.40
2023-02-03T18:37:44.615Z,5.75
2023-02-03T18:40:12.857Z,6.07
2023-02-03T18:42:40.414Z,6.28
2023-02-03T18:45:08.362Z,6.40
2023-02-03T18:47:36.008Z,5.45
2023-02-03T18:50:03.927Z,6.10
2023-02-03T18:52:31.483Z,5.60
2023-02-03T18:54:58.891Z,6.00
2023-02-03T18:57:26.355Z,5.25
2023-02-03T18:59:54.056Z,6.05
2023-02-03T19:02:23.998Z,5.22
2023-02-03T19:04:53.285Z,5.50
2023-02-03T19:07:20.802Z,5.22
2023-02-03T19:09:48.214Z,5.75
2023-02-03T19:12:15.594Z,6.13
2023-02-03T19:14:42.944Z,6.00
2023-02-03T19:17:10.425Z,5.65
2023-02-03T19:19:37.973Z,6.68
2023-02-03T19:22:05.360Z,6.63
2023-02-03T19:24:32.840Z,5.57
2023-02-03T19:27:00.248Z,5.88
2023-02-03T19:29:27.710Z,5.35
2023-02-03T19:31:55.377Z,5.07
2023-02-03T19:34:22.834Z,5.85
2023-02-03T19:36:52.614Z,5.35
2023-02-03T19:39:21.562Z,5.70
2023-02-03T19:41:49.085Z,5.80
2023-02-03T19:44:16.512Z,5.70
2023-02-03T19:46:44.016Z,5.70
2023-02-03T19:49:13.259Z,5.82
2023-02-03T19:51:41.473Z,6.32
2023-02-03T19:54:12.400Z,5.80
2023-02-03T19:56:39.810Z,6.03
2023-02-03T19:59:07.611Z,5.70
2023-02-03T20:01:35.495Z,6.35
2023-02-03T20:04:03.440Z,5.47
2023-02-03T20:06:31.722Z,6.10
2023-02-03T20:09:03.732Z,6.18
2023-02-03T20:11:31.188Z,6.20
2023-02-03T20:13:58.567Z,5.97
2023-02-03T20:16:25.988Z,6.38
2023-02-03T20:18:53.404Z,5.97
2023-02-03T20:21:20.773Z,6.38
2023-02-03T20:23:48.192Z,5.82
2023-02-03T20:26:15.558Z,7.22
2023-02-03T20:28:44.172Z,7.43
2023-02-03T20:31:11.914Z,6.47
2023-02-03T20:33:39.615Z,5.82
2023-02-03T20:36:11.462Z,5.78
2023-02-03T20:38:38.973Z,6.88
2023-02-03T20:41:10.715Z,5.95
2023-02-03T20:43:38.285Z,5.93
2023-02-03T20:46:13.316Z,7.03
2023-02-03T20:48:40.669Z,6.32
2023-02-03T20:51:16.004Z,6.68
2023-02-03T20:53:47.999Z,5.57
2023-02-03T20:56:17.453Z,6.60
2023-02-03T20:58:45.208Z,6.00
2023-02-03T21:01:21.133Z,7.43
2023-02-03T21:04:07.874Z,7.20
2023-02-03T21:06:35.870Z,5.88
2023-02-03T21:09:23.734Z,5.85
2023-02-03T21:11:53.008Z,7.00
2023-02-03T21:14:22.898Z,6.85
2023-02-03T21:16:50.964Z,6.90
2023-02-03T21:19:32.394Z,7.00
2023-02-03T21:22:10.728Z,7.75
2023-02-03T21:24:45.597Z,7.47
2023-02-03T21:27:34.022Z,7.07
2023-02-03T21:30:05.499Z,7.07
2023-02-03T21:32:40.549Z,7.32
2023-02-03T21:35:32.587Z,7.45
2023-02-03T21:38:04.258Z,7.63
2023-02-03T21:40:35.906Z,7.00
2023-02-03T21:43:03.687Z,7.30
2023-02-03T21:45:35.754Z,7.28
2023-02-03T21:48:26.229Z,8.57
2023-02-03T21:50:55.605Z,8.27
2023-02-03T21:53:36.217Z,8.25
2023-02-03T21:56:14.898Z,7.53
2023-02-03T21:58:44.113Z,8.57
2023-02-03T22:01:16.477Z,7.15
2023-02-03T22:03:47.628Z,7.25
2023-02-03T22:06:19.303Z,8.23
2023-02-03T22:08:48.138Z,8.38
2023-02-03T22:11:16.617Z,8.02
2023-02-03T22:13:44.161Z,8.63
2023-02-03T22:16:14.110Z,9.05
2023-02-03T22:18:41.881Z,8.68
2023-02-03T22:21:09.323Z,7.53
2023-02-03T22:23:36.740Z,7.78
2023-02-03T22:26:04.252Z,8.73
2023-02-03T22:28:31.645Z,8.50
2023-02-03T22:30:59.125Z,8.68
2023-02-03T22:33:26.783Z,8.20
2023-02-03T22:35:54.174Z,8.50
2023-02-03T22:38:21.507Z,9.30
2023-02-03T22:40:48.827Z,9.35
2023-02-03T22:43:16.125Z,11.73
2023-02-03T22:45:43.517Z,12.68
2023-02-03T22:48:10.973Z,11.20
2023-02-03T22:50:38.737Z,10.52
2023-02-03T22:53:07.135Z,19.30
2023-02-03T22:55:34.627Z,20.85
2023-02-03T22:58:01.972Z,10.98
2023-02-03T23:00:29.579Z,11.00
2023-02-03T23:02:57.203Z,10.20
2023-02-03T23:05:24.604Z,9.25
2023-02-03T23:07:52.033Z,9.23
2023-02-03T23:10:22.125Z,8.85
2023-02-03T23:12:49.729Z,10.05
2023-02-03T23:15:20.443Z,9.98
2023-02-03T23:17:48.893Z,8.85
2023-02-03T23:20:19.502Z,10.02
2023-02-03T23:22:47.730Z,8.50
2023-02-03T23:25:15.223Z,8.65
2023-02-03T23:27:42.952Z,8.75
2023-02-03T23:30:11.171Z,8.60
2023-02-03T23:32:38.586Z,8.82
2023-02-03T23:35:24.909Z,8.38
2023-02-03T23:37:52.364Z,8.55
2023-02-03T23:40:21.223Z,8.85
2023-02-03T23:42:48.516Z,8.23
2023-02-03T23:45:18.450Z,7.75
2023-02-03T23:47:46.717Z,8.25
2023-02-03T23:50:15.905Z,7.15
2023-02-03T23:52:43.611Z,8.30
2023-02-03T23:55:19.215Z,7.32
2023-02-03T23:57:47.261Z,7.50
